»·PEaware :: PAA321 KMFR-KPDX

PAA321 :: KMFR-KPDX

FLIGHT INFORMATION

Flight Status: Arrived
Operator:
PanAm
More flights by this operator :: More flights under this callsign
Pilot: Dave P. (45)
Aircraft: BOEING 737-600
(B736)
More flights by this aircraft type
Origin: KMFR Rogue Valley Intl-Medford
United States
Destination: KPDX Portland Intl
United States
More flights between these airports :: More routes between these airports
Route: +JKSN1 OED MOXEE PORTL TMBRS2
File this flight plan on PilotEdge
Remarks: RMK / SIMBRIEF
Altitude:
(Current/Filed)
24,000ft
Speed:
(Current/Filed)
444kts
Departed: 31-Aug-19 07:45 AM
Arrived: 31-Aug-19 08:27 AM
Distance/Time
Traveled:
193nm/0:42
Distance/Time
To Go:
Arrived

Flight Plot

Page will automatically refresh every two minutes.

Flight plan parsing failed; only flown route is shown


Map Options




Map Legend


Flown Route
Filed Route
Departure Airport
Arrival Airport
Navaid (VOR, NDB)
Fix

Horizontal Profiles

Position Reports

Time Latitude Longitude Heading Altitude Ground
Speed
31-Aug-19 07:04 42.371163 -122.876218 203 1343ft 0kts
31-Aug-19 07:05 42.371163 -122.876218 203 1343ft 0kts
31-Aug-19 07:06 42.371163 -122.876218 203 1343ft 0kts
31-Aug-19 07:07 42.371163 -122.876218 203 1343ft 0kts
31-Aug-19 07:08 42.371163 -122.876218 203 1343ft 0kts
31-Aug-19 07:09 42.371163 -122.876218 203 1343ft 0kts
31-Aug-19 07:10 42.371163 -122.876218 203 1343ft 0kts
31-Aug-19 07:11 42.371163 -122.876218 203 1343ft 0kts
31-Aug-19 07:12 42.371163 -122.876218 203 1343ft 0kts
31-Aug-19 07:13 42.371163 -122.876218 203 1343ft 0kts
31-Aug-19 07:14 42.371163 -122.876218 203 1343ft 0kts
31-Aug-19 07:15 42.371163 -122.876218 203 1343ft 0kts
31-Aug-19 07:16 42.371163 -122.876218 203 1343ft 0kts
31-Aug-19 07:17 42.371163 -122.876218 203 1343ft 0kts
31-Aug-19 07:18 42.371163 -122.876218 203 1343ft 0kts
31-Aug-19 07:19 42.371163 -122.876218 203 1343ft 0kts
31-Aug-19 07:20 42.371163 -122.876218 203 1343ft 0kts
31-Aug-19 07:21 42.371163 -122.876218 203 1343ft 0kts
31-Aug-19 07:22 42.371163 -122.876218 203 1343ft 0kts
31-Aug-19 07:23 42.371163 -122.876218 203 1343ft 0kts
31-Aug-19 07:24 42.371163 -122.876218 203 1343ft 0kts
31-Aug-19 07:25 42.371163 -122.876218 203 1343ft 0kts
31-Aug-19 07:26 42.371163 -122.876218 203 1343ft 0kts
31-Aug-19 07:27 42.371163 -122.876218 203 1343ft 0kts
31-Aug-19 07:28 42.371163 -122.876218 203 1343ft 0kts
31-Aug-19 07:29 42.371163 -122.876218 203 1343ft 0kts
31-Aug-19 07:30 42.371163 -122.876218 203 1343ft 0kts
31-Aug-19 07:31 42.371163 -122.876218 203 1343ft 0kts
31-Aug-19 07:32 42.371163 -122.876218 203 1343ft 0kts
31-Aug-19 07:33 42.371163 -122.876218 203 1343ft 0kts
31-Aug-19 07:34 42.371224 -122.876182 203 1342ft 2kts
31-Aug-19 07:35 42.371686 -122.875914 203 1342ft 0kts
31-Aug-19 07:36 42.371686 -122.875914 203 1342ft 0kts
31-Aug-19 07:37 42.371686 -122.875914 203 1342ft 0kts
31-Aug-19 07:38 42.371686 -122.875914 203 1342ft 0kts
31-Aug-19 07:39 42.370483 -122.873600 112 1342ft 17kts
31-Aug-19 07:40 42.372514 -122.873625 338 1342ft 21kts
31-Aug-19 07:41 42.377928 -122.876435 339 1342ft 24kts
31-Aug-19 07:42 42.383556 -122.879356 338 1342ft 19kts
31-Aug-19 07:43 42.385579 -122.879754 71 1342ft 3kts
31-Aug-19 07:44 42.378200 -122.874989 158 1343ft 116kts
31-Aug-19 07:45 42.337725 -122.867558 229 3153ft 159kts
31-Aug-19 07:46 42.361368 -122.919778 335 4580ft 235kts
31-Aug-19 07:47 42.433509 -122.922177 7 7724ft 278kts
31-Aug-19 07:48 42.513543 -122.908736 2 10770ft 315kts
31-Aug-19 07:49 42.611257 -122.900191 2 12979ft 369kts
31-Aug-19 07:50 42.715755 -122.890656 1 16400ft 384kts
31-Aug-19 07:51 42.824806 -122.880499 0 19522ft 401kts
31-Aug-19 07:52 42.938307 -122.869880 0 22350ft 417kts
31-Aug-19 07:53 43.056379 -122.858736 0 23993ft 434kts
31-Aug-19 07:54 43.177079 -122.847280 0 24028ft 436kts
31-Aug-19 07:55 43.298346 -122.835715 0 24026ft 436kts
31-Aug-19 07:56 43.419689 -122.824092 0 24028ft 436kts
31-Aug-19 07:57 43.540741 -122.812450 0 24034ft 436kts
31-Aug-19 07:58 43.661895 -122.800751 0 24042ft 437kts
31-Aug-19 07:59 43.783186 -122.788990 0 24048ft 437kts
31-Aug-19 08:00 43.904807 -122.777181 0 24053ft 437kts
31-Aug-19 08:01 44.025843 -122.765335 0 24054ft 437kts
31-Aug-19 08:02 44.147211 -122.753403 0 24057ft 437kts
31-Aug-19 08:03 44.268503 -122.741489 0 24060ft 436kts
31-Aug-19 08:04 44.388927 -122.729641 0 24060ft 427kts
31-Aug-19 08:05 44.506331 -122.717991 0 22967ft 417kts
31-Aug-19 08:06 44.619937 -122.706676 0 20452ft 400kts
31-Aug-19 08:07 44.728797 -122.695736 0 18036ft 385kts
31-Aug-19 08:08 44.830363 -122.685510 0 16676ft 349kts
31-Aug-19 08:09 44.925563 -122.675920 1 14758ft 336kts
31-Aug-19 08:10 45.013518 -122.667044 1 13530ft 308kts
31-Aug-19 08:11 45.097911 -122.658468 1 11775ft 299kts
31-Aug-19 08:12 45.179043 -122.650180 2 10199ft 284kts
31-Aug-19 08:13 45.253623 -122.647348 346 8931ft 260kts
31-Aug-19 08:14 45.322385 -122.682706 337 7968ft 262kts
31-Aug-19 08:15 45.389208 -122.719559 337 6866ft 255kts
31-Aug-19 08:16 45.454861 -122.755606 337 6158ft 237kts
31-Aug-19 08:17 45.513583 -122.787954 337 5189ft 215kts
31-Aug-19 08:18 45.565137 -122.816422 336 4000ft 194kts
31-Aug-19 08:19 45.598675 -122.870732 301 3091ft 177kts
31-Aug-19 08:20 45.630185 -122.922011 1 3097ft 183kts
31-Aug-19 08:21 45.663423 -122.873182 46 3124ft 170kts
31-Aug-19 08:22 45.667734 -122.806827 114 2935ft 181kts
31-Aug-19 08:23 45.643508 -122.745732 118 1964ft 169kts
31-Aug-19 08:24 45.622352 -122.691384 118 1122ft 142kts
31-Aug-19 08:25 45.603823 -122.643762 117 403ft 135kts
31-Aug-19 08:26 45.589142 -122.605884 104 38ft 22kts
31-Aug-19 08:27 45.590017 -122.602864 120 38ft 11kts
31-Aug-19 08:28 45.588010 -122.597738 120 38ft 12kts
31-Aug-19 08:29 45.588660 -122.596922 7 38ft 0kts
31-Aug-19 08:30 45.588660 -122.596922 7 38ft 0kts
31-Aug-19 08:31 45.588660 -122.596922 7 38ft 0kts

Navigation Log

Ident Type
Flight plan parsing failed, navigation log unavailable